sensor_id;sensor_type;location;lat;lon;timestamp;pressure;altitude;pressure_sealevel;temperature;humidity
141;BME280;65;48.778;9.160;2023-03-15T00:01:39;98139.13;;;1.80;100.00
141;BME280;65;48.778;9.160;2023-03-15T00:04:26;98151.31;;;1.79;100.00
141;BME280;65;48.778;9.160;2023-03-15T00:07:12;98159.28;;;1.73;100.00
141;BME280;65;48.778;9.160;2023-03-15T00:09:57;98162.59;;;1.80;100.00
141;BME280;65;48.778;9.160;2023-03-15T00:12:43;98167.88;;;1.77;100.00
141;BME280;65;48.778;9.160;2023-03-15T00:15:29;98175.66;;;1.78;100.00
141;BME280;65;48.778;9.160;2023-03-15T00:18:17;98200.84;;;1.78;100.00
141;BME280;65;48.778;9.160;2023-03-15T00:21:03;98201.75;;;1.77;100.00
141;BME280;65;48.778;9.160;2023-03-15T00:23:49;98209.47;;;1.80;100.00
141;BME280;65;48.778;9.160;2023-03-15T00:26:35;98205.97;;;1.81;100.00
141;BME280;65;48.778;9.160;2023-03-15T00:29:21;98209.06;;;1.95;100.00
141;BME280;65;48.778;9.160;2023-03-15T00:32:07;98218.66;;;1.93;100.00
141;BME280;65;48.778;9.160;2023-03-15T00:34:53;98226.31;;;1.99;100.00
141;BME280;65;48.778;9.160;2023-03-15T00:37:39;98215.19;;;1.93;100.00
141;BME280;65;48.778;9.160;2023-03-15T00:40:25;98223.81;;;1.95;100.00
141;BME280;65;48.778;9.160;2023-03-15T00:43:10;98214.16;;;1.98;100.00
141;BME280;65;48.778;9.160;2023-03-15T00:45:57;98237.59;;;2.00;100.00
141;BME280;65;48.778;9.160;2023-03-15T00:48:46;98235.88;;;1.99;100.00
141;BME280;65;48.778;9.160;2023-03-15T00:51:32;98237.84;;;1.90;100.00
141;BME280;65;48.778;9.160;2023-03-15T00:54:18;98243.13;;;1.87;100.00
141;BME280;65;48.778;9.160;2023-03-15T00:57:03;98246.69;;;1.85;100.00
141;BME280;65;48.778;9.160;2023-03-15T00:59:49;98254.25;;;1.94;100.00
141;BME280;65;48.778;9.160;2023-03-15T01:02:37;98261.25;;;1.92;100.00
141;BME280;65;48.778;9.160;2023-03-15T01:05:23;98263.81;;;1.94;100.00
141;BME280;65;48.778;9.160;2023-03-15T01:08:09;98265.53;;;1.95;100.00
141;BME280;65;48.778;9.160;2023-03-15T01:10:54;98276.06;;;1.90;100.00
141;BME280;65;48.778;9.160;2023-03-15T01:13:40;98269.38;;;1.81;100.00
141;BME280;65;48.778;9.160;2023-03-15T01:16:27;98276.44;;;1.76;100.00
141;BME280;65;48.778;9.160;2023-03-15T01:19:13;98275.81;;;1.67;100.00
141;BME280;65;48.778;9.160;2023-03-15T01:21:58;98281.09;;;1.64;100.00
141;BME280;65;48.778;9.160;2023-03-15T01:24:44;98280.44;;;1.55;100.00
141;BME280;65;48.778;9.160;2023-03-15T01:27:30;98287.53;;;1.50;100.00
141;BME280;65;48.778;9.160;2023-03-15T01:30:16;98287.56;;;1.49;100.00
141;BME280;65;48.778;9.160;2023-03-15T01:33:02;98291.03;;;1.49;100.00
141;BME280;65;48.778;9.160;2023-03-15T01:35:47;98290.31;;;1.43;100.00
141;BME280;65;48.778;9.160;2023-03-15T01:38:33;98288.72;;;1.37;100.00
141;BME280;65;48.778;9.160;2023-03-15T01:41:20;98295.84;;;1.31;100.00
141;BME280;65;48.778;9.160;2023-03-15T01:44:11;98298.47;;;1.29;100.00
141;BME280;65;48.778;9.160;2023-03-15T01:46:58;98289.66;;;1.35;100.00
141;BME280;65;48.778;9.160;2023-03-15T01:49:49;98297.56;;;1.32;100.00
141;BME280;65;48.778;9.160;2023-03-15T01:52:38;98303.69;;;1.29;100.00
141;BME280;65;48.778;9.160;2023-03-15T01:55:27;98315.94;;;1.25;100.00
141;BME280;65;48.778;9.160;2023-03-15T01:58:13;98311.84;;;1.14;100.00
141;BME280;65;48.778;9.160;2023-03-15T02:00:59;98322.28;;;1.12;100.00
141;BME280;65;48.778;9.160;2023-03-15T02:03:49;98320.50;;;1.14;100.00
141;BME280;65;48.778;9.160;2023-03-15T02:06:37;98324.06;;;1.10;100.00
141;BME280;65;48.778;9.160;2023-03-15T02:09:27;98326.47;;;1.19;100.00
141;BME280;65;48.778;9.160;2023-03-15T02:12:14;98328.19;;;1.20;100.00
141;BME280;65;48.778;9.160;2023-03-15T02:15:02;98327.34;;;1.20;100.00
141;BME280;65;48.778;9.160;2023-03-15T02:17:49;98330.72;;;1.23;100.00
141;BME280;65;48.778;9.160;2023-03-15T02:23:30;98328.31;;;1.14;100.00
141;BME280;65;48.778;9.160;2023-03-15T02:26:25;98335.22;;;1.17;100.00
141;BME280;65;48.778;9.160;2023-03-15T02:29:14;98338.81;;;1.10;100.00
141;BME280;65;48.778;9.160;2023-03-15T02:32:00;98337.81;;;1.17;100.00
141;BME280;65;48.778;9.160;2023-03-15T02:34:48;98337.69;;;1.23;100.00
141;BME280;65;48.778;9.160;2023-03-15T02:37:34;98339.53;;;1.18;100.00
141;BME280;65;48.778;9.160;2023-03-15T02:40:42;98353.44;;;1.17;100.00
141;BME280;65;48.778;9.160;2023-03-15T02:43:30;98360.28;;;1.21;100.00
141;BME280;65;48.778;9.160;2023-03-15T02:46:17;98369.81;;;1.22;100.00
141;BME280;65;48.778;9.160;2023-03-15T02:49:04;98366.25;;;1.26;100.00
141;BME280;65;48.778;9.160;2023-03-15T02:51:52;98376.78;;;1.20;100.00
141;BME280;65;48.778;9.160;2023-03-15T02:54:38;98374.13;;;1.23;100.00
141;BME280;65;48.778;9.160;2023-03-15T02:57:28;98387.28;;;1.17;100.00
141;BME280;65;48.778;9.160;2023-03-15T03:00:14;98395.88;;;1.20;100.00
141;BME280;65;48.778;9.160;2023-03-15T03:03:00;98397.59;;;1.21;100.00
141;BME280;65;48.778;9.160;2023-03-15T03:05:46;98406.22;;;1.23;100.00
141;BME280;65;48.778;9.160;2023-03-15T03:08:31;98408.94;;;1.17;100.00
141;BME280;65;48.778;9.160;2023-03-15T03:11:17;98416.78;;;1.16;100.00
141;BME280;65;48.778;9.160;2023-03-15T03:14:03;98423.72;;;1.15;100.00
141;BME280;65;48.778;9.160;2023-03-15T03:16:50;98428.00;;;1.19;100.00
141;BME280;65;48.778;9.160;2023-03-15T03:19:35;98434.13;;;1.17;100.00
141;BME280;65;48.778;9.160;2023-03-15T03:22:21;98437.63;;;1.16;100.00
141;BME280;65;48.778;9.160;2023-03-15T03:25:11;98435.88;;;1.16;100.00
141;BME280;65;48.778;9.160;2023-03-15T03:27:57;98443.69;;;1.15;100.00
141;BME280;65;48.778;9.160;2023-03-15T03:30:43;98454.97;;;1.14;100.00
141;BME280;65;48.778;9.160;2023-03-15T03:33:28;98449.13;;;1.04;100.00
141;BME280;65;48.778;9.160;2023-03-15T03:36:15;98456.06;;;1.04;100.00
141;BME280;65;48.778;9.160;2023-03-15T03:39:01;98464.88;;;0.97;100.00
141;BME280;65;48.778;9.160;2023-03-15T03:41:47;98465.81;;;0.94;100.00
141;BME280;65;48.778;9.160;2023-03-15T03:44:33;98464.03;;;0.96;100.00
141;BME280;65;48.778;9.160;2023-03-15T03:47:19;98486.75;;;0.88;100.00
141;BME280;65;48.778;9.160;2023-03-15T03:50:05;98482.56;;;0.81;100.00
141;BME280;65;48.778;9.160;2023-03-15T03:52:51;98487.84;;;0.76;100.00
141;BME280;65;48.778;9.160;2023-03-15T03:55:37;98496.50;;;0.77;100.00
141;BME280;65;48.778;9.160;2023-03-15T03:58:23;98493.97;;;0.74;100.00
141;BME280;65;48.778;9.160;2023-03-15T04:01:08;98489.69;;;0.71;100.00
141;BME280;65;48.778;9.160;2023-03-15T04:03:54;98500.94;;;0.72;100.00
141;BME280;65;48.778;9.160;2023-03-15T04:06:40;98498.16;;;0.81;100.00
141;BME280;65;48.778;9.160;2023-03-15T04:09:46;98503.16;;;0.91;100.00
141;BME280;65;48.778;9.160;2023-03-15T04:12:32;98516.25;;;0.87;100.00
141;BME280;65;48.778;9.160;2023-03-15T04:15:18;98523.44;;;0.74;100.00
141;BME280;65;48.778;9.160;2023-03-15T04:18:04;98527.75;;;0.75;100.00
141;BME280;65;48.778;9.160;2023-03-15T04:20:50;98532.16;;;0.72;100.00
141;BME280;65;48.778;9.160;2023-03-15T04:23:38;98537.41;;;0.69;100.00
141;BME280;65;48.778;9.160;2023-03-15T04:26:25;98533.16;;;0.65;100.00
141;BME280;65;48.778;9.160;2023-03-15T04:29:11;98536.63;;;0.65;100.00
141;BME280;65;48.778;9.160;2023-03-15T04:31:59;98539.19;;;0.67;100.00
141;BME280;65;48.778;9.160;2023-03-15T04:34:46;98545.34;;;0.61;100.00
141;BME280;65;48.778;9.160;2023-03-15T04:37:35;98543.66;;;0.58;100.00
141;BME280;65;48.778;9.160;2023-03-15T04:40:22;98542.66;;;0.66;100.00
141;BME280;65;48.778;9.160;2023-03-15T04:43:08;98544.13;;;0.80;100.00
141;BME280;65;48.778;9.160;2023-03-15T04:45:54;98547.44;;;0.88;100.00
141;BME280;65;48.778;9.160;2023-03-15T04:48:40;98556.78;;;0.99;100.00
141;BME280;65;48.778;9.160;2023-03-15T04:51:26;98554.25;;;0.95;100.00
141;BME280;65;48.778;9.160;2023-03-15T04:54:11;98555.06;;;0.98;100.00
141;BME280;65;48.778;9.160;2023-03-15T04:56:57;98554.19;;;0.99;100.00
141;BME280;65;48.778;9.160;2023-03-15T04:59:43;98551.00;;;0.84;100.00
141;BME280;65;48.778;9.160;2023-03-15T05:02:28;98547.75;;;0.72;100.00
141;BME280;65;48.778;9.160;2023-03-15T05:05:14;98552.34;;;0.56;100.00
141;BME280;65;48.778;9.160;2023-03-15T05:08:00;98550.78;;;0.46;100.00
141;BME280;65;48.778;9.160;2023-03-15T05:10:46;98538.84;;;0.36;100.00
141;BME280;65;48.778;9.160;2023-03-15T05:13:31;98550.78;;;0.46;100.00
141;BME280;65;48.778;9.160;2023-03-15T05:16:17;98544.31;;;0.71;100.00
141;BME280;65;48.778;9.160;2023-03-15T05:19:03;98551.13;;;0.77;100.00
141;BME280;65;48.778;9.160;2023-03-15T05:21:48;98547.69;;;0.75;100.00
141;BME280;65;48.778;9.160;2023-03-15T05:24:34;98543.53;;;0.66;100.00
141;BME280;65;48.778;9.160;2023-03-15T05:27:20;98545.34;;;0.61;100.00
141;BME280;65;48.778;9.160;2023-03-15T05:30:07;98553.28;;;0.52;100.00
141;BME280;65;48.778;9.160;2023-03-15T05:32:53;98545.56;;;0.47;100.00
141;BME280;65;48.778;9.160;2023-03-15T05:35:38;98552.53;;;0.45;100.00
141;BME280;65;48.778;9.160;2023-03-15T05:38:24;98555.88;;;0.52;100.00
141;BME280;65;48.778;9.160;2023-03-15T05:41:11;98557.38;;;0.68;100.00
141;BME280;65;48.778;9.160;2023-03-15T05:43:56;98556.41;;;0.74;100.00
141;BME280;65;48.778;9.160;2023-03-15T05:46:42;98562.44;;;0.76;100.00
141;BME280;65;48.778;9.160;2023-03-15T05:49:28;98559.75;;;0.80;100.00
141;BME280;65;48.778;9.160;2023-03-15T05:52:15;98564.47;;;1.05;99.66
141;BME280;65;48.778;9.160;2023-03-15T05:55:01;98572.97;;;1.16;99.71
141;BME280;65;48.778;9.160;2023-03-15T05:57:46;98565.97;;;1.18;100.00
141;BME280;65;48.778;9.160;2023-03-15T06:00:32;98571.19;;;1.18;99.44
141;BME280;65;48.778;9.160;2023-03-15T06:03:18;98565.31;;;1.07;100.00
141;BME280;65;48.778;9.160;2023-03-15T06:06:03;98572.47;;;0.95;100.00
141;BME280;65;48.778;9.160;2023-03-15T06:08:49;98569.16;;;0.87;100.00
141;BME280;65;48.778;9.160;2023-03-15T06:11:35;98578.66;;;0.88;100.00
141;BME280;65;48.778;9.160;2023-03-15T06:14:21;98579.66;;;0.81;100.00
141;BME280;65;48.778;9.160;2023-03-15T06:17:07;98587.41;;;0.84;100.00
141;BME280;65;48.778;9.160;2023-03-15T06:19:52;98581.25;;;0.88;100.00
141;BME280;65;48.778;9.160;2023-03-15T06:22:38;98581.94;;;0.98;99.78
141;BME280;65;48.778;9.160;2023-03-15T06:25:24;98582.81;;;0.99;100.00
141;BME280;65;48.778;9.160;2023-03-15T06:28:10;98587.88;;;1.06;100.00
141;BME280;65;48.778;9.160;2023-03-15T06:30:55;98591.94;;;1.21;97.30
141;BME280;65;48.778;9.160;2023-03-15T06:33:47;98591.66;;;1.36;95.85
141;BME280;65;48.778;9.160;2023-03-15T06:36:33;98602.66;;;1.49;95.61
141;BME280;65;48.778;9.160;2023-03-15T06:39:21;98596.53;;;1.51;95.28
141;BME280;65;48.778;9.160;2023-03-15T06:42:08;98593.75;;;1.61;96.00
141;BME280;65;48.778;9.160;2023-03-15T06:44:54;98590.03;;;1.71;95.54
141;BME280;65;48.778;9.160;2023-03-15T06:47:39;98599.22;;;1.90;93.68
141;BME280;65;48.778;9.160;2023-03-15T06:50:25;98603.22;;;2.05;93.46
141;BME280;65;48.778;9.160;2023-03-15T06:53:11;98609.44;;;1.99;92.83
141;BME280;65;48.778;9.160;2023-03-15T06:55:57;98600.25;;;2.20;91.43
141;BME280;65;48.778;9.160;2023-03-15T06:58:42;98599.31;;;2.22;91.37
141;BME280;65;48.778;9.160;2023-03-15T07:01:28;98601.75;;;2.30;90.88
141;BME280;65;48.778;9.160;2023-03-15T07:04:14;98598.06;;;2.40;87.56
141;BME280;65;48.778;9.160;2023-03-15T07:07:00;98597.31;;;2.35;89.28
141;BME280;65;48.778;9.160;2023-03-15T07:09:46;98604.13;;;2.41;89.42
141;BME280;65;48.778;9.160;2023-03-15T07:12:53;98605.47;;;2.57;88.07
141;BME280;65;48.778;9.160;2023-03-15T07:15:39;98610.38;;;2.69;85.19
141;BME280;65;48.778;9.160;2023-03-15T07:18:25;98615.41;;;2.77;84.72
141;BME280;65;48.778;9.160;2023-03-15T07:21:11;98611.06;;;2.77;84.84
141;BME280;65;48.778;9.160;2023-03-15T07:23:57;98612.81;;;2.77;83.46
141;BME280;65;48.778;9.160;2023-03-15T07:26:43;98623.81;;;2.90;81.69
141;BME280;65;48.778;9.160;2023-03-15T07:29:29;98624.59;;;2.93;82.98
141;BME280;65;48.778;9.160;2023-03-15T07:32:15;98634.81;;;3.02;81.84
141;BME280;65;48.778;9.160;2023-03-15T07:35:01;98637.66;;;2.93;83.39
141;BME280;65;48.778;9.160;2023-03-15T07:37:46;98636.44;;;3.06;83.75
141;BME280;65;48.778;9.160;2023-03-15T07:40:32;98638.09;;;3.09;82.22
141;BME280;65;48.778;9.160;2023-03-15T07:43:18;98642.44;;;3.10;83.47
141;BME280;65;48.778;9.160;2023-03-15T07:46:04;98639.78;;;3.11;83.38
141;BME280;65;48.778;9.160;2023-03-15T07:48:51;98642.19;;;3.19;82.75
141;BME280;65;48.778;9.160;2023-03-15T07:51:36;98642.81;;;3.29;80.07
141;BME280;65;48.778;9.160;2023-03-15T07:54:22;98641.97;;;3.27;82.72
141;BME280;65;48.778;9.160;2023-03-15T07:57:08;98640.72;;;3.41;81.96
141;BME280;65;48.778;9.160;2023-03-15T07:59:54;98638.19;;;3.38;82.13
141;BME280;65;48.778;9.160;2023-03-15T08:02:40;98644.13;;;3.43;83.00
141;BME280;65;48.778;9.160;2023-03-15T08:05:26;98638.69;;;3.53;82.04
141;BME280;65;48.778;9.160;2023-03-15T08:08:12;98640.22;;;3.60;82.40
141;BME280;65;48.778;9.160;2023-03-15T08:10:58;98647.09;;;3.64;80.89
141;BME280;65;48.778;9.160;2023-03-15T08:13:44;98645.91;;;3.74;80.43
141;BME280;65;48.778;9.160;2023-03-15T08:16:30;98646.47;;;3.85;79.47
141;BME280;65;48.778;9.160;2023-03-15T08:19:15;98651.50;;;3.91;79.64
141;BME280;65;48.778;9.160;2023-03-15T08:22:01;98646.81;;;4.02;78.17
141;BME280;65;48.778;9.160;2023-03-15T08:24:47;98644.88;;;4.10;75.88
141;BME280;65;48.778;9.160;2023-03-15T08:27:32;98639.25;;;4.23;80.02
141;BME280;65;48.778;9.160;2023-03-15T08:30:19;98645.81;;;4.36;78.71
141;BME280;65;48.778;9.160;2023-03-15T08:33:07;98652.19;;;4.55;77.24
141;BME280;65;48.778;9.160;2023-03-15T08:35:53;98649.56;;;4.55;71.01
141;BME280;65;48.778;9.160;2023-03-15T08:38:38;98654.25;;;4.73;74.33
141;BME280;65;48.778;9.160;2023-03-15T08:41:24;98654.56;;;4.91;72.72
141;BME280;65;48.778;9.160;2023-03-15T08:44:10;98650.59;;;5.04;73.37
141;BME280;65;48.778;9.160;2023-03-15T08:46:56;98655.88;;;5.54;69.05
141;BME280;65;48.778;9.160;2023-03-15T08:49:41;98651.44;;;5.81;69.51
141;BME280;65;48.778;9.160;2023-03-15T08:52:27;98647.53;;;6.16;64.32
141;BME280;65;48.778;9.160;2023-03-15T08:55:13;98649.00;;;6.46;63.96
141;BME280;65;48.778;9.160;2023-03-15T08:57:58;98650.78;;;6.88;62.70
141;BME280;65;48.778;9.160;2023-03-15T09:00:47;98659.34;;;7.15;60.29
141;BME280;65;48.778;9.160;2023-03-15T09:03:33;98666.78;;;7.25;61.35
141;BME280;65;48.778;9.160;2023-03-15T09:06:19;98667.56;;;7.48;57.70
141;BME280;65;48.778;9.160;2023-03-15T09:09:10;98668.94;;;7.36;57.83
141;BME280;65;48.778;9.160;2023-03-15T09:11:56;98673.09;;;7.42;57.51
141;BME280;65;48.778;9.160;2023-03-15T09:14:42;98667.75;;;7.23;57.16
141;BME280;65;48.778;9.160;2023-03-15T09:17:28;98669.38;;;7.05;59.28
141;BME280;65;48.778;9.160;2023-03-15T09:20:14;98677.06;;;7.10;59.03
141;BME280;65;48.778;9.160;2023-03-15T09:23:00;98679.97;;;7.24;59.31
141;BME280;65;48.778;9.160;2023-03-15T09:25:46;98686.34;;;7.18;57.80
141;BME280;65;48.778;9.160;2023-03-15T09:28:32;98684.09;;;7.09;58.76
141;BME280;65;48.778;9.160;2023-03-15T09:31:18;98682.84;;;6.97;59.54
141;BME280;65;48.778;9.160;2023-03-15T09:34:04;98685.41;;;6.99;59.99
141;BME280;65;48.778;9.160;2023-03-15T09:36:50;98692.59;;;7.16;56.99
141;BME280;65;48.778;9.160;2023-03-15T09:39:37;98686.84;;;7.06;59.39
141;BME280;65;48.778;9.160;2023-03-15T09:49:16;98694.00;;;7.03;55.39
141;BME280;65;48.778;9.160;2023-03-15T09:55:29;98694.00;;;6.59;56.33
141;BME280;65;48.778;9.160;2023-03-15T09:58:24;98710.50;;;6.62;58.67
141;BME280;65;48.778;9.160;2023-03-15T10:01:12;98698.66;;;6.96;57.14
141;BME280;65;48.778;9.160;2023-03-15T10:04:05;98693.69;;;7.10;55.82
141;BME280;65;48.778;9.160;2023-03-15T10:06:55;98690.38;;;7.27;54.41
141;BME280;65;48.778;9.160;2023-03-15T10:09:42;98686.22;;;7.21;53.37
141;BME280;65;48.778;9.160;2023-03-15T10:12:30;98688.34;;;7.34;55.98
141;BME280;65;48.778;9.160;2023-03-15T10:15:47;98692.16;;;7.87;54.28
141;BME280;65;48.778;9.160;2023-03-15T10:21:51;98682.19;;;9.26;46.68
141;BME280;65;48.778;9.160;2023-03-15T10:24:51;98682.34;;;8.86;46.57
141;BME280;65;48.778;9.160;2023-03-15T10:31:20;98680.38;;;7.76;47.61
141;BME280;65;48.778;9.160;2023-03-15T10:34:17;98687.50;;;7.74;50.55
141;BME280;65;48.778;9.160;2023-03-15T10:37:03;98680.91;;;7.84;50.25
141;BME280;65;48.778;9.160;2023-03-15T10:39:55;98675.81;;;8.39;47.46
141;BME280;65;48.778;9.160;2023-03-15T10:42:44;98675.56;;;8.81;48.26
141;BME280;65;48.778;9.160;2023-03-15T10:45:30;98676.72;;;8.56;50.40
141;BME280;65;48.778;9.160;2023-03-15T10:48:16;98670.03;;;8.68;49.04
141;BME280;65;48.778;9.160;2023-03-15T10:51:21;98664.50;;;8.92;53.34
141;BME280;65;48.778;9.160;2023-03-15T10:54:12;98670.47;;;9.31;47.75
141;BME280;65;48.778;9.160;2023-03-15T10:57:12;98666.94;;;9.13;48.54
141;BME280;65;48.778;9.160;2023-03-15T11:00:01;98671.38;;;8.77;50.22
141;BME280;65;48.778;9.160;2023-03-15T11:03:14;98666.97;;;8.21;51.52
141;BME280;65;48.778;9.160;2023-03-15T11:06:01;98671.91;;;8.08;53.58
141;BME280;65;48.778;9.160;2023-03-15T11:08:47;98673.72;;;7.87;55.34
141;BME280;65;48.778;9.160;2023-03-15T11:14:36;98668.13;;;7.14;59.10
141;BME280;65;48.778;9.160;2023-03-15T11:17:25;98665.06;;;7.24;55.29
141;BME280;65;48.778;9.160;2023-03-15T11:20:48;98671.25;;;7.44;53.60
141;BME280;65;48.778;9.160;2023-03-15T11:23:37;98668.03;;;7.37;52.40
141;BME280;65;48.778;9.160;2023-03-15T11:26:25;98666.34;;;7.56;52.18
141;BME280;65;48.778;9.160;2023-03-15T11:29:22;98665.97;;;7.84;52.20
141;BME280;65;48.778;9.160;2023-03-15T11:32:15;98662.66;;;8.00;52.38
141;BME280;65;48.778;9.160;2023-03-15T11:35:05;98665.28;;;8.00;51.88
141;BME280;65;48.778;9.160;2023-03-15T11:37:56;98662.19;;;7.71;50.47
141;BME280;65;48.778;9.160;2023-03-15T11:40:50;98647.72;;;7.61;48.83
141;BME280;65;48.778;9.160;2023-03-15T11:46:28;98664.25;;;7.83;48.89
141;BME280;65;48.778;9.160;2023-03-15T11:52:28;98667.19;;;7.57;51.30
141;BME280;65;48.778;9.160;2023-03-15T11:55:22;98660.00;;;7.40;52.42
141;BME280;65;48.778;9.160;2023-03-15T12:01:24;98667.69;;;7.45;51.57
141;BME280;65;48.778;9.160;2023-03-15T12:10:30;98661.72;;;8.01;50.27
141;BME280;65;48.778;9.160;2023-03-15T12:13:21;98665.53;;;8.33;49.81
141;BME280;65;48.778;9.160;2023-03-15T12:16:10;98672.34;;;8.93;47.98
141;BME280;65;48.778;9.160;2023-03-15T12:18:57;98659.63;;;8.28;54.80
141;BME280;65;48.778;9.160;2023-03-15T12:21:55;98670.03;;;8.68;48.86
141;BME280;65;48.778;9.160;2023-03-15T12:24:44;98664.09;;;8.82;51.69
141;BME280;65;48.778;9.160;2023-03-15T12:27:34;98673.78;;;9.52;45.32
141;BME280;65;48.778;9.160;2023-03-15T12:30:31;98666.34;;;9.43;49.02
141;BME280;65;48.778;9.160;2023-03-15T12:33:19;98666.78;;;9.16;47.87
141;BME280;65;48.778;9.160;2023-03-15T12:36:17;98663.00;;;9.39;46.03
141;BME280;65;48.778;9.160;2023-03-15T12:41:58;98660.88;;;10.47;43.54
141;BME280;65;48.778;9.160;2023-03-15T12:44:44;98670.03;;;9.91;47.10
141;BME280;65;48.778;9.160;2023-03-15T12:47:46;98663.22;;;9.00;50.37
141;BME280;65;48.778;9.160;2023-03-15T12:56:40;98682.25;;;8.13;51.04
141;BME280;65;48.778;9.160;2023-03-15T12:59:41;98680.91;;;8.23;51.37
141;BME280;65;48.778;9.160;2023-03-15T13:02:35;98683.19;;;8.31;50.72
141;BME280;65;48.778;9.160;2023-03-15T13:05:29;98696.94;;;7.98;54.51
141;BME280;65;48.778;9.160;2023-03-15T13:08:22;98711.53;;;6.58;65.37
141;BME280;65;48.778;9.160;2023-03-15T13:14:49;98699.59;;;7.78;64.72
141;BME280;65;48.778;9.160;2023-03-15T13:21:27;98685.44;;;9.31;59.26
141;BME280;65;48.778;9.160;2023-03-15T13:24:22;98692.88;;;9.57;58.56
141;BME280;65;48.778;9.160;2023-03-15T13:27:34;98686.41;;;9.11;58.16
141;BME280;65;48.778;9.160;2023-03-15T13:30:48;98692.31;;;8.80;60.75
141;BME280;65;48.778;9.160;2023-03-15T13:33:34;98708.03;;;8.25;64.47
141;BME280;65;48.778;9.160;2023-03-15T13:36:19;98699.63;;;7.97;65.39
141;BME280;65;48.778;9.160;2023-03-15T13:39:17;98695.50;;;7.30;67.29
141;BME280;65;48.778;9.160;2023-03-15T13:42:17;98701.84;;;7.67;68.67
141;BME280;65;48.778;9.160;2023-03-15T13:45:10;98706.72;;;7.55;66.91
141;BME280;65;48.778;9.160;2023-03-15T13:48:02;98708.97;;;7.22;67.73
141;BME280;65;48.778;9.160;2023-03-15T13:50:49;98711.91;;;6.93;72.46
141;BME280;65;48.778;9.160;2023-03-15T13:53:35;98718.03;;;6.25;76.78
141;BME280;65;48.778;9.160;2023-03-15T13:57:03;98722.09;;;6.10;79.73
141;BME280;65;48.778;9.160;2023-03-15T14:00:09;98724.75;;;5.59;82.79
141;BME280;65;48.778;9.160;2023-03-15T14:02:59;98723.63;;;5.66;85.61
141;BME280;65;48.778;9.160;2023-03-15T14:05:48;98715.31;;;6.51;83.43
141;BME280;65;48.778;9.160;2023-03-15T14:08:35;98711.78;;;6.74;81.30
141;BME280;65;48.778;9.160;2023-03-15T14:14:25;98709.03;;;6.77;81.35
141;BME280;65;48.778;9.160;2023-03-15T14:17:26;98698.09;;;7.52;76.19
141;BME280;65;48.778;9.160;2023-03-15T14:20:15;98699.88;;;9.58;66.20
141;BME280;65;48.778;9.160;2023-03-15T14:23:03;98686.19;;;10.82;61.40
141;BME280;65;48.778;9.160;2023-03-15T14:26:01;98682.50;;;11.46;57.41
141;BME280;65;48.778;9.160;2023-03-15T14:28:57;98675.78;;;12.15;56.54
141;BME280;65;48.778;9.160;2023-03-15T14:31:49;98686.69;;;12.65;51.70
141;BME280;65;48.778;9.160;2023-03-15T14:34:46;98689.69;;;13.81;48.68
141;BME280;65;48.778;9.160;2023-03-15T14:37:39;98692.34;;;12.18;52.56
141;BME280;65;48.778;9.160;2023-03-15T14:40:33;98688.47;;;11.20;53.14
141;BME280;65;48.778;9.160;2023-03-15T14:43:19;98697.66;;;10.01;57.39
141;BME280;65;48.778;9.160;2023-03-15T14:46:07;98699.25;;;9.00;63.97
141;BME280;65;48.778;9.160;2023-03-15T14:48:53;98700.78;;;7.71;70.03
141;BME280;65;48.778;9.160;2023-03-15T14:51:39;98708.19;;;7.41;71.19
141;BME280;65;48.778;9.160;2023-03-15T14:54:25;98715.94;;;7.02;74.75
141;BME280;65;48.778;9.160;2023-03-15T14:57:12;98725.53;;;6.81;79.32
141;BME280;65;48.778;9.160;2023-03-15T14:59:58;98729.38;;;6.25;84.28
141;BME280;65;48.778;9.160;2023-03-15T15:02:47;98737.63;;;5.91;88.66
141;BME280;65;48.778;9.160;2023-03-15T15:05:34;98732.69;;;5.31;93.92
141;BME280;65;48.778;9.160;2023-03-15T15:08:20;98749.53;;;4.96;99.36
141;BME280;65;48.778;9.160;2023-03-15T15:11:09;98750.75;;;4.56;100.00
141;BME280;65;48.778;9.160;2023-03-15T15:13:55;98765.72;;;4.22;100.00
141;BME280;65;48.778;9.160;2023-03-15T15:16:42;98764.03;;;3.88;100.00
141;BME280;65;48.778;9.160;2023-03-15T15:19:27;98781.63;;;3.81;100.00
141;BME280;65;48.778;9.160;2023-03-15T15:22:13;98785.50;;;3.67;100.00
141;BME280;65;48.778;9.160;2023-03-15T15:24:59;98793.56;;;3.59;100.00
141;BME280;65;48.778;9.160;2023-03-15T15:27:45;98802.75;;;3.03;100.00
141;BME280;65;48.778;9.160;2023-03-15T15:30:31;98798.28;;;2.69;100.00
141;BME280;65;48.778;9.160;2023-03-15T15:33:17;98801.00;;;2.63;100.00
141;BME280;65;48.778;9.160;2023-03-15T15:36:05;98800.06;;;2.67;100.00
141;BME280;65;48.778;9.160;2023-03-15T15:38:51;98797.84;;;2.88;100.00
141;BME280;65;48.778;9.160;2023-03-15T15:41:37;98790.59;;;3.02;100.00
141;BME280;65;48.778;9.160;2023-03-15T15:44:23;98795.84;;;3.00;100.00
141;BME280;65;48.778;9.160;2023-03-15T15:47:11;98800.69;;;2.78;100.00
141;BME280;65;48.778;9.160;2023-03-15T15:49:57;98793.50;;;2.88;100.00
141;BME280;65;48.778;9.160;2023-03-15T15:52:47;98800.75;;;2.75;100.00
141;BME280;65;48.778;9.160;2023-03-15T15:55:35;98789.34;;;2.79;100.00
141;BME280;65;48.778;9.160;2023-03-15T15:58:21;98783.88;;;2.92;100.00
141;BME280;65;48.778;9.160;2023-03-15T16:01:10;98798.25;;;3.09;100.00
141;BME280;65;48.778;9.160;2023-03-15T16:03:56;98801.66;;;3.13;100.00
141;BME280;65;48.778;9.160;2023-03-15T16:06:45;98790.72;;;3.33;100.00
141;BME280;65;48.778;9.160;2023-03-15T16:09:36;98794.66;;;3.51;100.00
141;BME280;65;48.778;9.160;2023-03-15T16:12:23;98791.22;;;3.48;100.00
141;BME280;65;48.778;9.160;2023-03-15T16:15:11;98794.66;;;3.51;100.00
141;BME280;65;48.778;9.160;2023-03-15T16:17:58;98796.06;;;3.64;100.00
141;BME280;65;48.778;9.160;2023-03-15T16:20:44;98790.75;;;3.67;100.00
141;BME280;65;48.778;9.160;2023-03-15T16:23:29;98793.19;;;3.73;100.00
141;BME280;65;48.778;9.160;2023-03-15T16:26:15;98801.66;;;3.83;100.00
141;BME280;65;48.778;9.160;2023-03-15T16:29:12;98793.72;;;3.86;100.00
141;BME280;65;48.778;9.160;2023-03-15T16:31:59;98799.81;;;3.86;100.00
141;BME280;65;48.778;9.160;2023-03-15T16:34:51;98806.69;;;3.90;100.00
141;BME280;65;48.778;9.160;2023-03-15T16:37:37;98814.34;;;3.96;100.00
141;BME280;65;48.778;9.160;2023-03-15T16:40:28;98809.84;;;4.01;100.00
141;BME280;65;48.778;9.160;2023-03-15T16:43:15;98817.78;;;3.98;100.00
141;BME280;65;48.778;9.160;2023-03-15T16:46:01;98810.75;;;4.00;100.00
141;BME280;65;48.778;9.160;2023-03-15T16:48:46;98809.72;;;4.07;100.00
141;BME280;65;48.778;9.160;2023-03-15T16:51:32;98812.38;;;4.06;100.00
141;BME280;65;48.778;9.160;2023-03-15T16:54:19;98813.97;;;4.11;100.00
141;BME280;65;48.778;9.160;2023-03-15T16:57:18;98816.72;;;4.07;100.00
141;BME280;65;48.778;9.160;2023-03-15T17:00:10;98818.50;;;4.05;100.00